sensor_id;sensor_type;location;lat;lon;timestamp;P1;durP1;ratioP1;P2;durP2;ratioP2
19519;SDS011;9904;52.246;20.898;2023-11-19T00:02:12;65.50;;;25.90;;
19519;SDS011;9904;52.246;20.898;2023-11-19T00:04:39;67.50;;;27.37;;
19519;SDS011;9904;52.246;20.898;2023-11-19T00:07:06;72.93;;;27.97;;
19519;SDS011;9904;52.246;20.898;2023-11-19T00:09:34;73.33;;;27.43;;
19519;SDS011;9904;52.246;20.898;2023-11-19T00:12:03;70.73;;;28.33;;
19519;SDS011;9904;52.246;20.898;2023-11-19T00:14:31;67.20;;;26.57;;
19519;SDS011;9904;52.246;20.898;2023-11-19T00:16:58;66.23;;;25.80;;
19519;SDS011;9904;52.246;20.898;2023-11-19T00:19:25;69.87;;;25.47;;
19519;SDS011;9904;52.246;20.898;2023-11-19T00:21:52;73.57;;;27.30;;
19519;SDS011;9904;52.246;20.898;2023-11-19T00:24:19;83.63;;;28.53;;
19519;SDS011;9904;52.246;20.898;2023-11-19T00:26:46;72.27;;;27.70;;
19519;SDS011;9904;52.246;20.898;2023-11-19T00:29:13;78.13;;;28.67;;
19519;SDS011;9904;52.246;20.898;2023-11-19T00:31:40;77.10;;;27.43;;
19519;SDS011;9904;52.246;20.898;2023-11-19T00:34:06;68.00;;;26.87;;
19519;SDS011;9904;52.246;20.898;2023-11-19T00:36:33;76.17;;;28.23;;
19519;SDS011;9904;52.246;20.898;2023-11-19T00:39:00;66.57;;;25.83;;
19519;SDS011;9904;52.246;20.898;2023-11-19T00:41:27;72.57;;;26.77;;
19519;SDS011;9904;52.246;20.898;2023-11-19T00:43:53;70.40;;;26.33;;
19519;SDS011;9904;52.246;20.898;2023-11-19T00:46:20;67.00;;;25.97;;
19519;SDS011;9904;52.246;20.898;2023-11-19T00:48:47;75.10;;;27.73;;
19519;SDS011;9904;52.246;20.898;2023-11-19T00:51:13;68.93;;;27.07;;
19519;SDS011;9904;52.246;20.898;2023-11-19T00:53:40;62.93;;;26.00;;
19519;SDS011;9904;52.246;20.898;2023-11-19T00:56:07;60.77;;;25.23;;
19519;SDS011;9904;52.246;20.898;2023-11-19T00:58:33;66.33;;;25.77;;
19519;SDS011;9904;52.246;20.898;2023-11-19T01:01:00;69.23;;;26.57;;
19519;SDS011;9904;52.246;20.898;2023-11-19T01:03:27;66.20;;;25.80;;
19519;SDS011;9904;52.246;20.898;2023-11-19T01:05:54;76.63;;;29.17;;
19519;SDS011;9904;52.246;20.898;2023-11-19T01:08:20;70.57;;;26.90;;
19519;SDS011;9904;52.246;20.898;2023-11-19T01:10:47;58.17;;;24.40;;
19519;SDS011;9904;52.246;20.898;2023-11-19T01:13:14;68.60;;;26.77;;
19519;SDS011;9904;52.246;20.898;2023-11-19T01:15:40;75.97;;;26.30;;
19519;SDS011;9904;52.246;20.898;2023-11-19T01:18:07;67.13;;;25.43;;
19519;SDS011;9904;52.246;20.898;2023-11-19T01:20:36;67.93;;;25.07;;
19519;SDS011;9904;52.246;20.898;2023-11-19T01:23:03;83.63;;;28.30;;
19519;SDS011;9904;52.246;20.898;2023-11-19T01:25:30;70.87;;;27.97;;
19519;SDS011;9904;52.246;20.898;2023-11-19T01:27:57;77.90;;;28.93;;
19519;SDS011;9904;52.246;20.898;2023-11-19T01:30:25;90.53;;;32.40;;
19519;SDS011;9904;52.246;20.898;2023-11-19T01:32:52;79.23;;;28.13;;
19519;SDS011;9904;52.246;20.898;2023-11-19T01:35:19;78.23;;;27.70;;
19519;SDS011;9904;52.246;20.898;2023-11-19T01:37:45;71.50;;;26.60;;
19519;SDS011;9904;52.246;20.898;2023-11-19T01:40:12;87.63;;;30.87;;
19519;SDS011;9904;52.246;20.898;2023-11-19T01:42:39;77.27;;;29.70;;
19519;SDS011;9904;52.246;20.898;2023-11-19T01:45:07;82.50;;;29.77;;
19519;SDS011;9904;52.246;20.898;2023-11-19T01:47:35;75.57;;;27.97;;
19519;SDS011;9904;52.246;20.898;2023-11-19T01:50:03;76.37;;;28.80;;
19519;SDS011;9904;52.246;20.898;2023-11-19T01:52:36;77.77;;;28.70;;
19519;SDS011;9904;52.246;20.898;2023-11-19T01:55:04;87.30;;;30.93;;
19519;SDS011;9904;52.246;20.898;2023-11-19T01:57:32;79.70;;;30.20;;
19519;SDS011;9904;52.246;20.898;2023-11-19T01:59:59;79.87;;;28.30;;
19519;SDS011;9904;52.246;20.898;2023-11-19T02:02:26;90.37;;;30.53;;
19519;SDS011;9904;52.246;20.898;2023-11-19T02:04:52;86.80;;;30.37;;
19519;SDS011;9904;52.246;20.898;2023-11-19T02:07:19;77.77;;;29.50;;
19519;SDS011;9904;52.246;20.898;2023-11-19T02:09:47;81.00;;;30.63;;
19519;SDS011;9904;52.246;20.898;2023-11-19T02:12:13;82.17;;;30.07;;
19519;SDS011;9904;52.246;20.898;2023-11-19T02:14:40;82.37;;;30.17;;
19519;SDS011;9904;52.246;20.898;2023-11-19T02:17:07;87.67;;;31.10;;
19519;SDS011;9904;52.246;20.898;2023-11-19T02:19:51;82.53;;;31.13;;
19519;SDS011;9904;52.246;20.898;2023-11-19T02:22:17;81.37;;;29.00;;
19519;SDS011;9904;52.246;20.898;2023-11-19T02:24:44;89.37;;;32.70;;
19519;SDS011;9904;52.246;20.898;2023-11-19T02:27:17;82.30;;;30.67;;
19519;SDS011;9904;52.246;20.898;2023-11-19T02:29:52;75.23;;;28.60;;
19519;SDS011;9904;52.246;20.898;2023-11-19T02:32:19;82.30;;;31.93;;
19519;SDS011;9904;52.246;20.898;2023-11-19T02:34:46;84.43;;;31.77;;
19519;SDS011;9904;52.246;20.898;2023-11-19T02:37:13;81.40;;;31.07;;
19519;SDS011;9904;52.246;20.898;2023-11-19T02:39:41;82.93;;;30.80;;
19519;SDS011;9904;52.246;20.898;2023-11-19T02:42:08;80.03;;;30.40;;
19519;SDS011;9904;52.246;20.898;2023-11-19T02:44:34;80.07;;;28.90;;
19519;SDS011;9904;52.246;20.898;2023-11-19T02:47:01;86.90;;;32.20;;
19519;SDS011;9904;52.246;20.898;2023-11-19T02:49:29;81.70;;;29.00;;
19519;SDS011;9904;52.246;20.898;2023-11-19T02:51:56;74.17;;;29.33;;
19519;SDS011;9904;52.246;20.898;2023-11-19T02:54:22;80.17;;;31.13;;
19519;SDS011;9904;52.246;20.898;2023-11-19T02:56:53;70.07;;;27.67;;
19519;SDS011;9904;52.246;20.898;2023-11-19T02:59:25;78.37;;;29.77;;
19519;SDS011;9904;52.246;20.898;2023-11-19T03:02:05;76.57;;;28.00;;
19519;SDS011;9904;52.246;20.898;2023-11-19T03:04:33;84.23;;;30.17;;
19519;SDS011;9904;52.246;20.898;2023-11-19T03:07:00;77.30;;;28.60;;
19519;SDS011;9904;52.246;20.898;2023-11-19T03:09:27;90.40;;;30.07;;
19519;SDS011;9904;52.246;20.898;2023-11-19T03:11:55;83.20;;;30.53;;
19519;SDS011;9904;52.246;20.898;2023-11-19T03:14:22;77.03;;;28.83;;
19519;SDS011;9904;52.246;20.898;2023-11-19T03:16:50;69.93;;;27.60;;
19519;SDS011;9904;52.246;20.898;2023-11-19T03:19:17;73.60;;;28.20;;
19519;SDS011;9904;52.246;20.898;2023-11-19T03:21:46;83.63;;;29.10;;
19519;SDS011;9904;52.246;20.898;2023-11-19T03:24:14;72.37;;;27.97;;
19519;SDS011;9904;52.246;20.898;2023-11-19T03:26:41;72.77;;;26.67;;
19519;SDS011;9904;52.246;20.898;2023-11-19T03:29:08;76.97;;;25.13;;
19519;SDS011;9904;52.246;20.898;2023-11-19T03:31:35;60.93;;;23.37;;
19519;SDS011;9904;52.246;20.898;2023-11-19T03:34:02;66.53;;;24.70;;
19519;SDS011;9904;52.246;20.898;2023-11-19T03:36:32;67.90;;;25.57;;
19519;SDS011;9904;52.246;20.898;2023-11-19T03:39:00;64.77;;;25.77;;
19519;SDS011;9904;52.246;20.898;2023-11-19T03:41:26;68.67;;;25.87;;
19519;SDS011;9904;52.246;20.898;2023-11-19T03:43:53;62.87;;;23.13;;
19519;SDS011;9904;52.246;20.898;2023-11-19T03:46:20;58.93;;;23.70;;
19519;SDS011;9904;52.246;20.898;2023-11-19T03:48:50;68.07;;;24.70;;
19519;SDS011;9904;52.246;20.898;2023-11-19T03:51:17;74.13;;;25.73;;
19519;SDS011;9904;52.246;20.898;2023-11-19T03:53:44;69.03;;;25.27;;
19519;SDS011;9904;52.246;20.898;2023-11-19T03:56:11;68.67;;;23.50;;
19519;SDS011;9904;52.246;20.898;2023-11-19T03:58:39;64.03;;;23.43;;
19519;SDS011;9904;52.246;20.898;2023-11-19T04:01:05;68.07;;;24.50;;
19519;SDS011;9904;52.246;20.898;2023-11-19T04:03:32;63.37;;;22.63;;
19519;SDS011;9904;52.246;20.898;2023-11-19T04:05:59;64.40;;;23.83;;
19519;SDS011;9904;52.246;20.898;2023-11-19T04:08:26;60.27;;;23.80;;
19519;SDS011;9904;52.246;20.898;2023-11-19T04:10:52;57.03;;;22.60;;
19519;SDS011;9904;52.246;20.898;2023-11-19T04:13:19;63.27;;;23.73;;
19519;SDS011;9904;52.246;20.898;2023-11-19T04:15:46;58.50;;;22.87;;
19519;SDS011;9904;52.246;20.898;2023-11-19T04:18:12;67.33;;;23.13;;
19519;SDS011;9904;52.246;20.898;2023-11-19T04:20:39;62.53;;;24.13;;
19519;SDS011;9904;52.246;20.898;2023-11-19T04:23:08;69.67;;;24.37;;
19519;SDS011;9904;52.246;20.898;2023-11-19T04:25:35;62.97;;;24.00;;
19519;SDS011;9904;52.246;20.898;2023-11-19T04:28:01;66.27;;;25.23;;
19519;SDS011;9904;52.246;20.898;2023-11-19T04:30:28;67.70;;;23.60;;
19519;SDS011;9904;52.246;20.898;2023-11-19T04:32:55;61.40;;;23.40;;
19519;SDS011;9904;52.246;20.898;2023-11-19T04:35:22;73.10;;;24.57;;
19519;SDS011;9904;52.246;20.898;2023-11-19T04:37:49;68.27;;;23.87;;
19519;SDS011;9904;52.246;20.898;2023-11-19T04:40:16;60.10;;;23.57;;
19519;SDS011;9904;52.246;20.898;2023-11-19T04:42:44;58.50;;;22.23;;
19519;SDS011;9904;52.246;20.898;2023-11-19T04:45:11;72.13;;;23.70;;
19519;SDS011;9904;52.246;20.898;2023-11-19T04:47:37;64.33;;;23.83;;
19519;SDS011;9904;52.246;20.898;2023-11-19T04:50:05;60.67;;;22.43;;
19519;SDS011;9904;52.246;20.898;2023-11-19T04:52:32;68.70;;;23.70;;
19519;SDS011;9904;52.246;20.898;2023-11-19T04:54:58;64.73;;;22.67;;
19519;SDS011;9904;52.246;20.898;2023-11-19T04:57:25;58.33;;;21.93;;
19519;SDS011;9904;52.246;20.898;2023-11-19T04:59:52;56.87;;;21.90;;
19519;SDS011;9904;52.246;20.898;2023-11-19T05:02:18;57.73;;;21.60;;
19519;SDS011;9904;52.246;20.898;2023-11-19T05:04:45;60.40;;;20.77;;
19519;SDS011;9904;52.246;20.898;2023-11-19T05:07:13;60.80;;;21.23;;
19519;SDS011;9904;52.246;20.898;2023-11-19T05:09:40;56.33;;;21.77;;
19519;SDS011;9904;52.246;20.898;2023-11-19T05:12:07;59.13;;;21.67;;
19519;SDS011;9904;52.246;20.898;2023-11-19T05:14:38;64.80;;;23.17;;
19519;SDS011;9904;52.246;20.898;2023-11-19T05:17:04;56.73;;;21.77;;
19519;SDS011;9904;52.246;20.898;2023-11-19T05:19:31;61.17;;;22.87;;
19519;SDS011;9904;52.246;20.898;2023-11-19T05:21:58;58.90;;;21.80;;
19519;SDS011;9904;52.246;20.898;2023-11-19T05:24:25;62.77;;;22.67;;
19519;SDS011;9904;52.246;20.898;2023-11-19T05:26:51;64.50;;;21.73;;
19519;SDS011;9904;52.246;20.898;2023-11-19T05:29:18;60.63;;;21.27;;
19519;SDS011;9904;52.246;20.898;2023-11-19T05:31:45;58.10;;;22.57;;
19519;SDS011;9904;52.246;20.898;2023-11-19T05:34:11;57.97;;;22.67;;
19519;SDS011;9904;52.246;20.898;2023-11-19T05:36:41;59.97;;;21.23;;
19519;SDS011;9904;52.246;20.898;2023-11-19T05:39:07;55.60;;;21.53;;
19519;SDS011;9904;52.246;20.898;2023-11-19T05:41:34;58.37;;;21.77;;
19519;SDS011;9904;52.246;20.898;2023-11-19T05:44:01;64.03;;;21.70;;
19519;SDS011;9904;52.246;20.898;2023-11-19T05:46:28;61.07;;;21.80;;
19519;SDS011;9904;52.246;20.898;2023-11-19T05:48:55;56.57;;;21.70;;
19519;SDS011;9904;52.246;20.898;2023-11-19T05:51:21;64.17;;;21.73;;
19519;SDS011;9904;52.246;20.898;2023-11-19T05:53:50;70.63;;;23.07;;
19519;SDS011;9904;52.246;20.898;2023-11-19T05:56:17;63.73;;;23.20;;
19519;SDS011;9904;52.246;20.898;2023-11-19T05:58:47;64.07;;;23.20;;
19519;SDS011;9904;52.246;20.898;2023-11-19T06:01:15;65.17;;;23.93;;
19519;SDS011;9904;52.246;20.898;2023-11-19T06:03:42;66.57;;;24.07;;
19519;SDS011;9904;52.246;20.898;2023-11-19T06:06:09;69.80;;;23.63;;
19519;SDS011;9904;52.246;20.898;2023-11-19T06:08:37;63.67;;;22.87;;
19519;SDS011;9904;52.246;20.898;2023-11-19T06:11:04;66.90;;;23.00;;
19519;SDS011;9904;52.246;20.898;2023-11-19T06:13:31;68.30;;;22.50;;
19519;SDS011;9904;52.246;20.898;2023-11-19T06:15:58;54.63;;;21.10;;
19519;SDS011;9904;52.246;20.898;2023-11-19T06:18:25;62.37;;;21.33;;
19519;SDS011;9904;52.246;20.898;2023-11-19T06:20:52;59.87;;;21.67;;
19519;SDS011;9904;52.246;20.898;2023-11-19T06:23:18;57.97;;;20.30;;
19519;SDS011;9904;52.246;20.898;2023-11-19T06:25:45;54.67;;;19.57;;
19519;SDS011;9904;52.246;20.898;2023-11-19T06:28:12;60.40;;;21.23;;
19519;SDS011;9904;52.246;20.898;2023-11-19T06:30:39;48.97;;;18.80;;
19519;SDS011;9904;52.246;20.898;2023-11-19T06:33:07;42.17;;;15.90;;
19519;SDS011;9904;52.246;20.898;2023-11-19T06:35:34;53.03;;;22.70;;
19519;SDS011;9904;52.246;20.898;2023-11-19T06:38:03;46.13;;;18.37;;
19519;SDS011;9904;52.246;20.898;2023-11-19T06:40:32;44.53;;;18.73;;
19519;SDS011;9904;52.246;20.898;2023-11-19T06:43:01;42.37;;;16.30;;
19519;SDS011;9904;52.246;20.898;2023-11-19T06:45:34;43.73;;;17.93;;
19519;SDS011;9904;52.246;20.898;2023-11-19T06:48:03;47.73;;;17.27;;
19519;SDS011;9904;52.246;20.898;2023-11-19T06:50:31;35.93;;;14.63;;
19519;SDS011;9904;52.246;20.898;2023-11-19T06:52:58;34.43;;;14.70;;
19519;SDS011;9904;52.246;20.898;2023-11-19T06:55:26;31.13;;;13.73;;
19519;SDS011;9904;52.246;20.898;2023-11-19T06:57:53;32.77;;;13.20;;
19519;SDS011;9904;52.246;20.898;2023-11-19T07:00:19;30.27;;;13.70;;
19519;SDS011;9904;52.246;20.898;2023-11-19T07:02:46;29.83;;;13.50;;
19519;SDS011;9904;52.246;20.898;2023-11-19T07:05:13;30.87;;;13.77;;
19519;SDS011;9904;52.246;20.898;2023-11-19T07:07:40;29.10;;;13.57;;
19519;SDS011;9904;52.246;20.898;2023-11-19T07:10:07;33.93;;;14.97;;
19519;SDS011;9904;52.246;20.898;2023-11-19T07:12:36;31.67;;;14.03;;
19519;SDS011;9904;52.246;20.898;2023-11-19T07:15:03;27.50;;;13.27;;
19519;SDS011;9904;52.246;20.898;2023-11-19T07:17:30;28.07;;;13.50;;
19519;SDS011;9904;52.246;20.898;2023-11-19T07:19:58;25.37;;;12.33;;
19519;SDS011;9904;52.246;20.898;2023-11-19T07:22:26;29.33;;;13.47;;
19519;SDS011;9904;52.246;20.898;2023-11-19T07:24:56;23.10;;;11.50;;
19519;SDS011;9904;52.246;20.898;2023-11-19T07:27:22;23.90;;;11.50;;
19519;SDS011;9904;52.246;20.898;2023-11-19T07:29:51;23.33;;;11.47;;
19519;SDS011;9904;52.246;20.898;2023-11-19T07:32:18;23.00;;;11.13;;
19519;SDS011;9904;52.246;20.898;2023-11-19T07:34:45;22.83;;;11.17;;
19519;SDS011;9904;52.246;20.898;2023-11-19T07:37:12;24.13;;;11.47;;
19519;SDS011;9904;52.246;20.898;2023-11-19T07:39:38;26.00;;;11.57;;
19519;SDS011;9904;52.246;20.898;2023-11-19T07:42:08;23.07;;;11.13;;
19519;SDS011;9904;52.246;20.898;2023-11-19T07:44:36;22.00;;;10.70;;
19519;SDS011;9904;52.246;20.898;2023-11-19T07:47:03;22.50;;;11.00;;
19519;SDS011;9904;52.246;20.898;2023-11-19T07:49:30;26.90;;;12.67;;
19519;SDS011;9904;52.246;20.898;2023-11-19T07:51:57;25.70;;;12.43;;
19519;SDS011;9904;52.246;20.898;2023-11-19T07:54:25;29.23;;;13.20;;
19519;SDS011;9904;52.246;20.898;2023-11-19T07:56:52;25.87;;;12.37;;
19519;SDS011;9904;52.246;20.898;2023-11-19T07:59:20;24.10;;;11.43;;
19519;SDS011;9904;52.246;20.898;2023-11-19T08:01:47;23.30;;;11.27;;
19519;SDS011;9904;52.246;20.898;2023-11-19T08:04:14;24.90;;;11.33;;
19519;SDS011;9904;52.246;20.898;2023-11-19T08:06:41;26.23;;;12.37;;
19519;SDS011;9904;52.246;20.898;2023-11-19T08:09:08;24.40;;;11.50;;
19519;SDS011;9904;52.246;20.898;2023-11-19T08:11:40;26.07;;;12.67;;
19519;SDS011;9904;52.246;20.898;2023-11-19T08:14:08;24.80;;;12.17;;
19519;SDS011;9904;52.246;20.898;2023-11-19T08:16:35;22.83;;;11.97;;
19519;SDS011;9904;52.246;20.898;2023-11-19T08:19:04;23.23;;;11.87;;
19519;SDS011;9904;52.246;20.898;2023-11-19T08:21:30;25.73;;;12.43;;
19519;SDS011;9904;52.246;20.898;2023-11-19T08:23:57;28.23;;;12.47;;
19519;SDS011;9904;52.246;20.898;2023-11-19T08:26:24;25.80;;;12.67;;
19519;SDS011;9904;52.246;20.898;2023-11-19T08:28:51;26.47;;;13.37;;
19519;SDS011;9904;52.246;20.898;2023-11-19T08:31:18;27.77;;;12.27;;
19519;SDS011;9904;52.246;20.898;2023-11-19T08:33:45;30.23;;;13.17;;
19519;SDS011;9904;52.246;20.898;2023-11-19T08:36:17;30.33;;;13.70;;
19519;SDS011;9904;52.246;20.898;2023-11-19T08:38:44;28.70;;;13.40;;
19519;SDS011;9904;52.246;20.898;2023-11-19T08:41:11;29.50;;;13.10;;
19519;SDS011;9904;52.246;20.898;2023-11-19T08:43:38;27.43;;;12.97;;
19519;SDS011;9904;52.246;20.898;2023-11-19T08:46:09;26.33;;;13.30;;
19519;SDS011;9904;52.246;20.898;2023-11-19T08:48:37;28.27;;;13.17;;
19519;SDS011;9904;52.246;20.898;2023-11-19T08:51:04;27.97;;;12.83;;
19519;SDS011;9904;52.246;20.898;2023-11-19T08:53:31;26.23;;;12.50;;
19519;SDS011;9904;52.246;20.898;2023-11-19T08:55:58;26.30;;;13.23;;
19519;SDS011;9904;52.246;20.898;2023-11-19T08:58:24;28.03;;;13.17;;
19519;SDS011;9904;52.246;20.898;2023-11-19T09:00:51;28.67;;;13.23;;
19519;SDS011;9904;52.246;20.898;2023-11-19T09:03:18;27.40;;;13.33;;
19519;SDS011;9904;52.246;20.898;2023-11-19T09:05:45;24.63;;;11.63;;
19519;SDS011;9904;52.246;20.898;2023-11-19T09:08:12;24.63;;;12.20;;
19519;SDS011;9904;52.246;20.898;2023-11-19T09:10:39;27.53;;;12.43;;
19519;SDS011;9904;52.246;20.898;2023-11-19T09:13:06;26.43;;;11.10;;
19519;SDS011;9904;52.246;20.898;2023-11-19T09:15:33;26.77;;;12.17;;
19519;SDS011;9904;52.246;20.898;2023-11-19T09:18:00;25.60;;;12.60;;
19519;SDS011;9904;52.246;20.898;2023-11-19T09:20:27;24.33;;;11.73;;
19519;SDS011;9904;52.246;20.898;2023-11-19T09:22:53;27.53;;;13.03;;
19519;SDS011;9904;52.246;20.898;2023-11-19T09:25:20;26.27;;;12.77;;
19519;SDS011;9904;52.246;20.898;2023-11-19T09:27:47;26.87;;;12.63;;
19519;SDS011;9904;52.246;20.898;2023-11-19T09:30:13;26.27;;;12.90;;
19519;SDS011;9904;52.246;20.898;2023-11-19T09:32:40;29.50;;;13.07;;
19519;SDS011;9904;52.246;20.898;2023-11-19T09:35:07;27.47;;;12.83;;
19519;SDS011;9904;52.246;20.898;2023-11-19T09:37:34;26.07;;;11.87;;
19519;SDS011;9904;52.246;20.898;2023-11-19T09:40:01;28.30;;;12.77;;
19519;SDS011;9904;52.246;20.898;2023-11-19T09:42:28;30.43;;;13.80;;
19519;SDS011;9904;52.246;20.898;2023-11-19T09:44:54;31.80;;;13.97;;
19519;SDS011;9904;52.246;20.898;2023-11-19T09:47:24;33.70;;;14.80;;
19519;SDS011;9904;52.246;20.898;2023-11-19T09:49:54;31.97;;;14.70;;
19519;SDS011;9904;52.246;20.898;2023-11-19T09:52:24;30.80;;;14.33;;
19519;SDS011;9904;52.246;20.898;2023-11-19T09:54:51;28.57;;;13.30;;
19519;SDS011;9904;52.246;20.898;2023-11-19T09:57:18;29.67;;;14.03;;
19519;SDS011;9904;52.246;20.898;2023-11-19T09:59:45;30.10;;;13.87;;
19519;SDS011;9904;52.246;20.898;2023-11-19T10:02:14;26.37;;;12.93;;
19519;SDS011;9904;52.246;20.898;2023-11-19T10:04:41;28.07;;;13.30;;
19519;SDS011;9904;52.246;20.898;2023-11-19T10:07:10;29.23;;;13.97;;
19519;SDS011;9904;52.246;20.898;2023-11-19T10:09:36;35.80;;;15.33;;
19519;SDS011;9904;52.246;20.898;2023-11-19T10:12:03;30.10;;;14.70;;
19519;SDS011;9904;52.246;20.898;2023-11-19T10:14:30;31.57;;;14.97;;
19519;SDS011;9904;52.246;20.898;2023-11-19T10:16:57;35.27;;;17.10;;
19519;SDS011;9904;52.246;20.898;2023-11-19T10:19:25;35.93;;;15.47;;
19519;SDS011;9904;52.246;20.898;2023-11-19T10:21:52;32.13;;;15.30;;
19519;SDS011;9904;52.246;20.898;2023-11-19T10:24:28;29.97;;;14.67;;
19519;SDS011;9904;52.246;20.898;2023-11-19T10:26:59;29.43;;;13.97;;
19519;SDS011;9904;52.246;20.898;2023-11-19T10:29:27;33.43;;;15.10;;
19519;SDS011;9904;52.246;20.898;2023-11-19T10:31:56;34.87;;;16.73;;
19519;SDS011;9904;52.246;20.898;2023-11-19T10:34:44;34.50;;;15.47;;
19519;SDS011;9904;52.246;20.898;2023-11-19T10:37:28;36.27;;;15.63;;
19519;SDS011;9904;52.246;20.898;2023-11-19T10:39:58;39.87;;;16.37;;
19519;SDS011;9904;52.246;20.898;2023-11-19T10:42:25;29.33;;;14.57;;
19519;SDS011;9904;52.246;20.898;2023-11-19T10:44:51;34.13;;;14.87;;
19519;SDS011;9904;52.246;20.898;2023-11-19T10:47:19;32.33;;;14.27;;
19519;SDS011;9904;52.246;20.898;2023-11-19T10:50:04;33.83;;;15.90;;
19519;SDS011;9904;52.246;20.898;2023-11-19T10:52:32;31.40;;;14.57;;
19519;SDS011;9904;52.246;20.898;2023-11-19T10:55:00;33.20;;;15.83;;
19519;SDS011;9904;52.246;20.898;2023-11-19T10:57:28;29.33;;;14.37;;
19519;SDS011;9904;52.246;20.898;2023-11-19T11:00:00;34.50;;;15.53;;
19519;SDS011;9904;52.246;20.898;2023-11-19T11:02:28;33.73;;;15.73;;
19519;SDS011;9904;52.246;20.898;2023-11-19T11:05:01;34.20;;;14.97;;
19519;SDS011;9904;52.246;20.898;2023-11-19T11:07:29;33.73;;;15.07;;
19519;SDS011;9904;52.246;20.898;2023-11-19T11:10:06;36.57;;;15.00;;
19519;SDS011;9904;52.246;20.898;2023-11-19T11:12:36;32.30;;;14.57;;
19519;SDS011;9904;52.246;20.898;2023-11-19T11:15:08;32.33;;;14.37;;
19519;SDS011;9904;52.246;20.898;2023-11-19T11:17:39;31.20;;;15.03;;
19519;SDS011;9904;52.246;20.898;2023-11-19T11:20:07;35.13;;;15.10;;
19519;SDS011;9904;52.246;20.898;2023-11-19T11:22:39;29.70;;;14.60;;
19519;SDS011;9904;52.246;20.898;2023-11-19T11:34:15;35.67;;;14.23;;
19519;SDS011;9904;52.246;20.898;2023-11-19T11:39:36;34.47;;;15.23;;
19519;SDS011;9904;52.246;20.898;2023-11-19T11:55:26;35.47;;;16.47;;
19519;SDS011;9904;52.246;20.898;2023-11-19T11:57:55;35.13;;;16.60;;
19519;SDS011;9904;52.246;20.898;2023-11-19T12:00:26;32.97;;;15.43;;
19519;SDS011;9904;52.246;20.898;2023-11-19T12:02:59;34.67;;;16.47;;
19519;SDS011;9904;52.246;20.898;2023-11-19T12:05:27;36.30;;;15.17;;
19519;SDS011;9904;52.246;20.898;2023-11-19T12:07:54;41.63;;;17.37;;
19519;SDS011;9904;52.246;20.898;2023-11-19T12:10:36;37.63;;;16.77;;
19519;SDS011;9904;52.246;20.898;2023-11-19T12:13:14;37.87;;;16.90;;
19519;SDS011;9904;52.246;20.898;2023-11-19T12:18:26;34.97;;;15.70;;
19519;SDS011;9904;52.246;20.898;2023-11-19T12:20:56;38.43;;;16.20;;
19519;SDS011;9904;52.246;20.898;2023-11-19T12:23:28;43.40;;;17.33;;
19519;SDS011;9904;52.246;20.898;2023-11-19T12:25:56;35.47;;;15.77;;
19519;SDS011;9904;52.246;20.898;2023-11-19T12:28:25;38.23;;;16.73;;
19519;SDS011;9904;52.246;20.898;2023-11-19T12:31:07;35.60;;;16.43;;
19519;SDS011;9904;52.246;20.898;2023-11-19T12:33:35;34.40;;;16.40;;
19519;SDS011;9904;52.246;20.898;2023-11-19T12:36:02;35.40;;;17.17;;
19519;SDS011;9904;52.246;20.898;2023-11-19T12:38:32;36.47;;;17.27;;
19519;SDS011;9904;52.246;20.898;2023-11-19T12:41:08;37.33;;;15.43;;
19519;SDS011;9904;52.246;20.898;2023-11-19T12:43:39;34.70;;;16.07;;
19519;SDS011;9904;52.246;20.898;2023-11-19T12:46:31;38.40;;;17.30;;
19519;SDS011;9904;52.246;20.898;2023-11-19T12:48:56;33.47;;;15.90;;
19519;SDS011;9904;52.246;20.898;2023-11-19T12:51:30;41.27;;;17.73;;
19519;SDS011;9904;52.246;20.898;2023-11-19T12:53:59;35.77;;;16.87;;
19519;SDS011;9904;52.246;20.898;2023-11-19T12:56:26;41.57;;;17.80;;
19519;SDS011;9904;52.246;20.898;2023-11-19T12:58:52;36.10;;;16.77;;
19519;SDS011;9904;52.246;20.898;2023-11-19T13:01:22;32.20;;;14.73;;
19519;SDS011;9904;52.246;20.898;2023-11-19T13:03:50;38.90;;;16.30;;
19519;SDS011;9904;52.246;20.898;2023-11-19T13:06:18;37.03;;;15.73;;
19519;SDS011;9904;52.246;20.898;2023-11-19T13:08:47;33.57;;;15.50;;
19519;SDS011;9904;52.246;20.898;2023-11-19T13:11:31;37.77;;;16.23;;
19519;SDS011;9904;52.246;20.898;2023-11-19T13:14:03;36.77;;;16.90;;
19519;SDS011;9904;52.246;20.898;2023-11-19T13:16:31;34.03;;;15.73;;
19519;SDS011;9904;52.246;20.898;2023-11-19T13:18:59;41.80;;;16.47;;
19519;SDS011;9904;52.246;20.898;2023-11-19T13:21:27;35.77;;;15.93;;
19519;SDS011;9904;52.246;20.898;2023-11-19T13:23:53;39.87;;;18.17;;
19519;SDS011;9904;52.246;20.898;2023-11-19T13:26:20;38.20;;;16.63;;
19519;SDS011;9904;52.246;20.898;2023-11-19T13:28:47;45.40;;;19.30;;
19519;SDS011;9904;52.246;20.898;2023-11-19T13:31:14;42.37;;;17.97;;
19519;SDS011;9904;52.246;20.898;2023-11-19T13:33:41;43.80;;;18.47;;
19519;SDS011;9904;52.246;20.898;2023-11-19T13:36:08;43.20;;;18.43;;
19519;SDS011;9904;52.246;20.898;2023-11-19T13:38:38;40.17;;;18.97;;
19519;SDS011;9904;52.246;20.898;2023-11-19T13:41:07;45.00;;;18.03;;
19519;SDS011;9904;52.246;20.898;2023-11-19T13:43:36;43.27;;;18.60;;
19519;SDS011;9904;52.246;20.898;2023-11-19T13:46:03;42.80;;;18.30;;
19519;SDS011;9904;52.246;20.898;2023-11-19T13:48:30;43.80;;;19.33;;
19519;SDS011;9904;52.246;20.898;2023-11-19T13:50:57;41.30;;;18.40;;
19519;SDS011;9904;52.246;20.898;2023-11-19T13:53:24;42.43;;;18.73;;
19519;SDS011;9904;52.246;20.898;2023-11-19T13:55:51;51.90;;;19.30;;
19519;SDS011;9904;52.246;20.898;2023-11-19T13:58:18;48.63;;;21.27;;
19519;SDS011;9904;52.246;20.898;2023-11-19T14:00:44;52.63;;;20.70;;
19519;SDS011;9904;52.246;20.898;2023-11-19T14:03:11;54.77;;;20.17;;
19519;SDS011;9904;52.246;20.898;2023-11-19T14:05:38;47.80;;;19.67;;
19519;SDS011;9904;52.246;20.898;2023-11-19T14:08:07;47.40;;;21.33;;
19519;SDS011;9904;52.246;20.898;2023-11-19T14:10:51;46.47;;;20.13;;
19519;SDS011;9904;52.246;20.898;2023-11-19T14:13:18;60.97;;;21.33;;
19519;SDS011;9904;52.246;20.898;2023-11-19T14:15:45;52.87;;;21.50;;
19519;SDS011;9904;52.246;20.898;2023-11-19T14:18:15;53.07;;;21.53;;
19519;SDS011;9904;52.246;20.898;2023-11-19T14:20:42;50.37;;;21.80;;
19519;SDS011;9904;52.246;20.898;2023-11-19T14:23:10;51.07;;;21.37;;
19519;SDS011;9904;52.246;20.898;2023-11-19T14:25:37;58.47;;;23.30;;
19519;SDS011;9904;52.246;20.898;2023-11-19T14:28:04;53.43;;;22.07;;
19519;SDS011;9904;52.246;20.898;2023-11-19T14:30:32;54.93;;;22.13;;
19519;SDS011;9904;52.246;20.898;2023-11-19T14:33:00;53.93;;;22.40;;
19519;SDS011;9904;52.246;20.898;2023-11-19T14:35:28;58.77;;;25.00;;
19519;SDS011;9904;52.246;20.898;2023-11-19T14:37:56;63.70;;;24.00;;
19519;SDS011;9904;52.246;20.898;2023-11-19T14:40:24;59.23;;;23.43;;
19519;SDS011;9904;52.246;20.898;2023-11-19T14:42:54;61.97;;;23.50;;
19519;SDS011;9904;52.246;20.898;2023-11-19T14:45:21;57.50;;;23.97;;
19519;SDS011;9904;52.246;20.898;2023-11-19T14:47:49;57.47;;;24.77;;
19519;SDS011;9904;52.246;20.898;2023-11-19T14:50:16;58.77;;;24.40;;
19519;SDS011;9904;52.246;20.898;2023-11-19T14:52:43;61.77;;;25.10;;
19519;SDS011;9904;52.246;20.898;2023-11-19T14:55:10;62.80;;;25.00;;